Time;durP1;ratioP1;P1;durP2;ratioP2;P2;SDS_P1;SDS_P2;PMS_P1;PMS_P2;Temp;Humidity;BMP_temperature;BMP_pressure;BME280_temperature;BME280_humidity;BME280_pressure;Samples;Min_cycle;Max_cycle;Signal;HPM_P1;HPM_P2
2022/10/02 00:03:26;;;;;;;19.83;3.45;;;17.70;99.90;;;;;;5011158;28;20037;-64
2022/10/02 00:06:40;;;;;;;24.67;3.60;;;17.70;99.90;;;;;;5011333;28;20045;-65
2022/10/02 00:09:53;;;;;;;24.27;3.08;;;17.60;99.90;;;;;;5011008;28;20065;-64
2022/10/02 00:13:01;;;;;;;17.52;2.85;;;17.60;99.90;;;;;;5010680;28;20049;-65
2022/10/02 00:16:41;;;;;;;23.40;4.50;;;17.60;99.90;;;;;;5010774;28;20400;-65
2022/10/02 00:20:10;;;;;;;23.38;3.80;;;17.60;99.90;;;;;;5011003;28;20064;-64
2022/10/02 00:23:42;;;;;;;25.88;4.60;;;17.60;99.90;;;;;;5010687;28;20548;-64
2022/10/02 00:27:14;;;;;;;17.80;3.60;;;17.50;99.90;;;;;;5010987;28;20041;-64
2022/10/02 00:30:18;;;;;;;18.48;3.72;;;17.40;99.90;;;;;;5010435;28;20046;-63
2022/10/02 00:33:52;;;;;;;27.50;4.38;;;17.30;99.90;;;;;;5010480;28;20516;-64
2022/10/02 00:37:13;;;;;;;25.83;3.20;;;17.30;99.90;;;;;;5010888;28;20483;-64
2022/10/02 00:40:54;;;;;;;23.65;3.25;;;17.30;99.90;;;;;;5010771;28;20041;-64
2022/10/02 00:44:37;;;;;;;24.35;3.20;;;17.30;99.90;;;;;;5010616;28;20041;-63
2022/10/02 00:52:30;;;;;;;20.90;3.40;;;17.40;99.90;;;;;;5013361;28;20040;-64
2022/10/02 00:56:15;;;;;;;22.80;4.05;;;17.40;99.90;;;;;;5014208;28;20040;-64
2022/10/02 00:59:56;;;;;;;18.55;3.63;;;17.40;99.90;;;;;;5013926;28;20057;-64
2022/10/02 01:03:10;;;;;;;21.63;3.05;;;17.50;99.90;;;;;;5014104;28;20420;-64
2022/10/02 01:06:14;;;;;;;21.15;4.15;;;17.50;99.90;;;;;;5013865;28;20045;-64
2022/10/02 01:09:18;;;;;;;20.92;3.33;;;17.60;99.90;;;;;;5013223;28;20048;-64
2022/10/02 01:12:23;;;;;;;23.95;3.33;;;17.60;99.90;;;;;;5014207;28;20049;-63
2022/10/02 01:15:31;;;;;;;21.38;3.13;;;17.60;99.90;;;;;;5013595;28;20053;-63
2022/10/02 01:18:54;;;;;;;19.50;3.45;;;17.60;99.90;;;;;;5013933;28;20064;-65
2022/10/02 01:26:30;;;;;;;;;;;17.60;99.90;;;;;;5013985;28;20053;-64
2022/10/02 01:29:34;;;;;;;17.83;3.40;;;17.60;99.90;;;;;;5013903;28;19920;-64
2022/10/02 01:32:59;;;;;;;18.27;2.90;;;17.50;99.90;;;;;;5013470;28;20064;-64
2022/10/02 01:36:03;;;;;;;19.25;3.47;;;17.50;99.90;;;;;;5013398;28;21117;-64
2022/10/02 01:39:08;;;;;;;21.00;3.15;;;17.50;99.90;;;;;;5013174;28;20405;-64
2022/10/02 01:42:30;;;;;;;27.08;3.50;;;17.50;99.90;;;;;;5012908;28;20049;-63
2022/10/02 01:45:59;;;;;;;19.42;3.10;;;17.50;99.90;;;;;;5013065;28;20078;-64
2022/10/02 01:49:45;;;;;;;18.50;4.13;;;17.50;99.90;;;;;;5013112;28;20511;-64
2022/10/02 01:52:59;;;;;;;18.83;2.80;;;17.50;99.90;;;;;;5011673;28;20057;-64
2022/10/02 01:56:13;;;;;;;21.08;3.83;;;17.60;99.90;;;;;;5012890;28;20053;-64
2022/10/02 01:59:32;;;;;;;16.25;3.22;;;17.60;99.90;;;;;;5013672;28;20044;-64
2022/10/02 02:03:02;;;;;;;18.00;3.22;;;17.60;99.90;;;;;;5001214;28;20504;-64
2022/10/02 02:06:13;;;;;;;23.52;3.95;;;17.60;99.90;;;;;;5012888;28;20052;-65
2022/10/02 02:09:41;;;;;;;17.75;3.30;;;17.60;99.90;;;;;;5013091;28;20045;-62
2022/10/02 02:13:39;;;;;;;22.20;3.35;;;17.60;99.90;;;;;;5013049;28;20049;-63
2022/10/02 02:17:03;;;;;;;18.92;3.10;;;17.60;99.90;;;;;;5013042;28;20049;-64
2022/10/02 02:20:31;;;;;;;17.95;3.22;;;17.60;99.90;;;;;;5012737;28;20041;-64
2022/10/02 02:23:54;;;;;;;15.55;3.00;;;17.60;99.90;;;;;;5012555;28;20044;-64
2022/10/02 02:27:03;;;;;;;22.73;3.20;;;17.60;99.90;;;;;;5012723;28;20048;-64
2022/10/02 02:30:10;;;;;;;18.13;3.60;;;17.70;99.90;;;;;;5012578;28;20044;-64
2022/10/02 02:33:32;;;;;;;31.25;3.90;;;17.70;99.90;;;;;;5012099;28;20045;-64
2022/10/02 02:36:56;;;;;;;38.15;5.47;;;17.70;99.90;;;;;;5012377;28;20065;-64
2022/10/02 02:40:08;;;;;;;16.10;2.85;;;17.60;99.90;;;;;;5012410;28;20053;-64
2022/10/02 02:43:47;;;;;;;20.20;3.72;;;17.70;99.90;;;;;;5012442;28;20053;-64
2022/10/02 02:47:02;;;;;;;21.83;3.45;;;17.70;99.90;;;;;;5011628;28;20041;-64
2022/10/02 02:53:59;;;;;;;28.40;3.80;;;17.60;99.90;;;;;;5011977;28;20454;-64
2022/10/02 02:57:06;;;;;;;25.67;4.50;;;17.60;99.90;;;;;;5011900;28;20389;-64
2022/10/02 03:03:37;;;;;;;18.63;3.58;;;17.60;99.90;;;;;;5012150;28;20052;-64
2022/10/02 03:06:44;;;;;;;22.20;3.80;;;17.60;99.90;;;;;;5011651;28;20049;-64
2022/10/02 03:10:13;;;;;;;21.85;3.70;;;17.60;99.90;;;;;;4999958;28;20057;-64
2022/10/02 03:13:23;;;;;;;21.95;2.92;;;17.70;99.90;;;;;;5010809;28;20049;-65
2022/10/02 03:16:52;;;;;;;15.52;2.83;;;17.70;99.90;;;;;;5011370;28;20053;-65
2022/10/02 03:20:03;;;;;;;21.55;2.75;;;17.70;99.90;;;;;;5011096;28;20044;-64
2022/10/02 03:23:44;;;;;;;20.00;2.85;;;17.70;99.90;;;;;;5011509;28;20041;-64
2022/10/02 03:27:12;;;;;;;26.55;3.58;;;17.70;99.90;;;;;;5010999;28;20610;-64
2022/10/02 03:30:20;;;;;;;17.83;2.78;;;17.70;99.90;;;;;;5011559;28;20048;-64
2022/10/02 03:33:45;;;;;;;24.23;4.05;;;17.70;99.90;;;;;;5010832;28;20056;-65
2022/10/02 03:36:49;;;;;;;22.85;3.10;;;17.70;99.90;;;;;;5011548;28;20041;-64
2022/10/02 03:39:57;;;;;;;24.60;3.78;;;17.70;99.90;;;;;;5011549;28;20041;-64
2022/10/02 03:43:01;;;;;;;27.75;3.35;;;17.70;99.90;;;;;;5011823;28;20056;-64
2022/10/02 03:46:05;;;;;;;21.58;3.28;;;17.70;99.90;;;;;;5011386;28;20516;-65
2022/10/02 03:49:09;;;;;;;22.10;3.33;;;17.70;99.90;;;;;;5011314;28;20496;-64
2022/10/02 03:52:34;;;;;;;21.08;3.45;;;17.70;99.90;;;;;;5011109;28;20053;-64
2022/10/02 03:55:44;;;;;;;25.55;4.25;;;17.80;99.90;;;;;;5011046;28;20036;-64
2022/10/02 04:02:55;;;;;;;20.75;2.67;;;17.90;99.90;;;;;;5011160;28;20044;-63
2022/10/02 04:06:22;;;;;;;16.50;2.28;;;17.90;99.90;;;;;;5010969;28;20053;-64
2022/10/02 04:10:01;;;;;;;24.50;3.33;;;17.90;99.90;;;;;;5010629;28;20049;-65
2022/10/02 04:13:10;;;;;;;14.82;3.15;;;18.00;99.90;;;;;;5010815;28;20049;-64
2022/10/02 04:16:57;;;;;;;21.15;4.00;;;17.90;99.90;;;;;;5010723;28;20052;-65
2022/10/02 04:23:51;;;;;;;21.92;3.13;;;17.20;99.90;;;;;;5012210;28;20045;-64
2022/10/02 04:27:10;;;;;;;18.40;3.28;;;17.10;99.90;;;;;;5014931;28;20049;-64
2022/10/02 04:30:16;;;;;;;26.27;3.78;;;17.00;99.90;;;;;;5013818;28;20508;-65
2022/10/02 04:33:23;;;;;;;18.58;4.10;;;17.00;99.90;;;;;;5014694;28;20053;-64
2022/10/02 04:37:08;;;;;;;22.10;3.53;;;17.00;99.90;;;;;;5014454;28;20227;-64
2022/10/02 04:40:54;;;;;;;22.60;3.35;;;17.10;99.90;;;;;;5015007;28;20052;-65
2022/10/02 04:44:24;;;;;;;16.77;4.05;;;17.10;99.90;;;;;;5014614;28;20389;-65
2022/10/02 04:47:31;;;;;;;25.40;4.13;;;16.90;99.90;;;;;;5014326;28;20041;-64
2022/10/02 04:51:09;;;;;;;22.58;3.33;;;16.90;99.90;;;;;;5014267;28;20061;-64
2022/10/02 04:58:22;;;;;;;27.50;4.25;;;16.90;99.90;;;;;;5014296;28;20052;-64
2022/10/02 05:05:54;;;;;;;20.67;3.17;;;16.90;99.90;;;;;;5013961;28;20041;-65
2022/10/02 05:09:13;;;;;;;27.65;3.70;;;16.80;99.90;;;;;;5013902;28;20393;-64
2022/10/02 05:20:05;;;;;;;22.35;3.55;;;16.60;99.90;;;;;;5013953;28;20048;-64
2022/10/02 05:23:11;;;;;;;23.00;4.00;;;16.60;99.90;;;;;;5014094;28;20045;-63
2022/10/02 05:26:37;;;;;;;19.55;3.17;;;16.60;99.90;;;;;;5013919;28;20053;-64
2022/10/02 05:30:15;;;;;;;16.48;3.38;;;16.70;99.90;;;;;;5012968;28;20404;-65
2022/10/02 05:33:39;;;;;;;27.67;4.35;;;16.70;99.90;;;;;;5012476;28;20113;-64
2022/10/02 05:37:20;;;;;;;25.95;3.63;;;16.60;99.90;;;;;;5012817;28;20504;-64
2022/10/02 05:41:05;;;;;;;22.77;3.53;;;16.70;99.90;;;;;;5013583;28;20044;-64
2022/10/02 05:44:19;;;;;;;20.27;3.90;;;16.50;99.90;;;;;;5014491;28;20041;-64
2022/10/02 05:47:46;;;;;;;18.70;3.88;;;16.50;99.90;;;;;;5013669;28;20109;-63
2022/10/02 05:51:11;;;;;;;23.58;4.70;;;16.50;99.90;;;;;;5013552;28;20125;-64
2022/10/02 06:01:56;;;;;;;25.65;3.60;;;16.80;99.90;;;;;;5012889;28;20049;-64
2022/10/02 06:05:22;;;;;;;19.75;3.80;;;16.90;99.90;;;;;;5013043;28;20060;-64
2022/10/02 06:08:47;;;;;;;21.45;3.88;;;17.00;99.90;;;;;;5012962;28;20057;-64
2022/10/02 06:11:56;;;;;;;22.27;4.45;;;17.00;99.90;;;;;;5013302;28;20045;-64
2022/10/02 06:15:38;;;;;;;19.63;4.00;;;17.10;99.90;;;;;;5012703;28;20076;-64
2022/10/02 06:18:48;;;;;;;20.98;3.22;;;17.10;99.90;;;;;;5013174;28;20049;-64
2022/10/02 06:25:40;;;;;;;29.25;3.92;;;17.30;99.90;;;;;;5012746;28;20049;-64
2022/10/02 06:29:02;;;;;;;24.27;3.55;;;17.50;99.90;;;;;;5011758;28;20053;-64
2022/10/02 06:32:29;;;;;;;26.02;3.55;;;17.50;99.90;;;;;;5012530;28;20049;-64
2022/10/02 06:35:53;;;;;;;16.20;2.88;;;17.60;99.90;;;;;;5012076;28;20041;-64
2022/10/02 06:39:21;;;;;;;14.57;2.85;;;17.60;99.90;;;;;;5012601;28;20045;-64
2022/10/02 06:42:52;;;;;;;21.50;3.53;;;17.60;99.90;;;;;;5011463;28;20037;-64
2022/10/02 06:49:46;;;;;;;23.10;3.13;;;17.80;99.90;;;;;;5012689;28;20053;-64
2022/10/02 06:53:25;;;;;;;16.58;3.17;;;17.80;99.90;;;;;;5012394;28;20048;-64
2022/10/02 06:57:01;;;;;;;25.92;6.20;;;17.80;99.90;;;;;;5011502;28;20053;-64
2022/10/02 07:00:13;;;;;;;34.35;11.10;;;17.90;99.90;;;;;;5011304;28;20492;-64
2022/10/02 07:03:54;;;;;;;35.33;10.60;;;17.70;99.90;;;;;;5011757;28;20114;-64
2022/10/02 07:07:15;;;;;;;28.17;9.48;;;16.40;99.90;;;;;;5011940;28;20084;-64
2022/10/02 07:10:26;;;;;;;28.30;7.38;;;17.80;99.90;;;;;;5012228;28;20041;-64
2022/10/02 07:13:57;;;;;;;21.52;5.82;;;18.00;99.90;;;;;;5011492;28;20052;-64
2022/10/02 07:17:18;;;;;;;20.73;6.30;;;17.90;99.90;;;;;;5011750;28;20060;-65
2022/10/02 07:20:46;;;;;;;33.05;9.48;;;18.00;99.90;;;;;;5011777;28;20053;-64
2022/10/02 07:23:58;;;;;;;30.08;8.90;;;18.00;99.90;;;;;;5012472;28;20065;-64
2022/10/02 07:27:18;;;;;;;27.05;8.32;;;18.10;99.90;;;;;;5011657;28;20053;-64
2022/10/02 07:30:22;;;;;;;23.35;7.13;;;18.00;99.90;;;;;;5011094;28;20040;-64
2022/10/02 07:33:44;;;;;;;28.48;7.03;;;18.30;99.90;;;;;;5011148;28;20500;-64
2022/10/02 07:37:19;;;;;;;21.35;5.57;;;18.60;99.90;;;;;;5011271;28;20053;-64
2022/10/02 07:51:58;;;;;;;27.38;5.20;;;18.50;99.90;;;;;;5011216;28;20388;-64
2022/10/02 07:55:25;;;;;;;22.33;5.20;;;18.70;99.90;;;;;;5011235;28;20389;-64
2022/10/02 07:58:34;;;;;;;22.40;4.35;;;19.00;99.90;;;;;;5011163;28;20041;-64
2022/10/02 08:01:40;;;;;;;25.15;4.68;;;19.20;99.90;;;;;;5011121;28;20045;-64
2022/10/02 08:04:46;;;;;;;23.75;3.95;;;19.30;99.90;;;;;;5010852;28;20045;-64
2022/10/02 08:08:03;;;;;;;27.83;4.72;;;19.60;99.90;;;;;;5010667;28;20049;-64
2022/10/02 08:11:29;;;;;;;21.50;4.30;;;19.70;99.90;;;;;;5010887;28;20037;-64
2022/10/02 08:14:39;;;;;;;21.67;4.72;;;19.70;99.90;;;;;;5010474;28;20041;-64
2022/10/02 08:18:36;;;;;;;25.67;4.88;;;19.90;99.90;;;;;;5011055;28;20065;-63
2022/10/02 08:21:46;;;;;;;21.33;4.50;;;20.20;99.90;;;;;;5011089;28;20409;-64
2022/10/02 08:25:01;;;;;;;24.52;4.10;;;21.00;99.90;;;;;;5010389;28;20048;-64
2022/10/02 08:28:15;;;;;;;20.15;5.07;;;21.80;99.90;;;;;;5010694;28;20064;-64
2022/10/02 08:31:37;;;;;;;17.48;4.97;;;21.80;99.90;;;;;;5011117;28;20057;-64
2022/10/02 08:34:42;;;;;;;19.15;4.20;;;21.80;99.90;;;;;;5010676;28;20045;-63
2022/10/02 08:38:18;;;;;;;21.13;4.05;;;21.80;99.90;;;;;;5010752;28;20393;-64
2022/10/02 08:41:41;;;;;;;18.42;3.10;;;22.20;99.90;;;;;;5010583;28;20501;-64
2022/10/02 08:45:06;;;;;;;20.15;3.30;;;22.10;99.90;;;;;;5010293;28;20393;-64
2022/10/02 08:48:41;;;;;;;21.90;3.65;;;22.10;99.90;;;;;;5010430;28;20060;-64
2022/10/02 08:52:08;;;;;;;18.02;4.30;;;22.20;99.90;;;;;;5010699;28;20519;-65
2022/10/02 08:55:36;;;;;;;20.23;4.72;;;22.10;99.90;;;;;;5010210;28;20112;-64
2022/10/02 09:02:10;;;;;;;15.45;3.25;;;22.40;99.90;;;;;;5010548;28;20045;-65
2022/10/02 09:05:26;;;;;;;26.95;4.15;;;22.10;99.90;;;;;;5010117;28;20041;-64
2022/10/02 09:08:39;;;;;;;14.20;3.90;;;22.50;99.90;;;;;;5010325;28;20037;-64
2022/10/02 09:11:59;;;;;;;17.58;3.90;;;21.80;99.90;;;;;;5013985;28;20060;-64
2022/10/02 09:15:45;;;;;;;18.05;3.28;;;23.90;99.90;;;;;;5013643;28;20041;-65
2022/10/02 09:19:25;;;;;;;23.23;4.95;;;24.00;99.90;;;;;;5013068;28;20511;-65
2022/10/02 09:23:02;;;;;;;18.95;4.63;;;23.10;99.90;;;;;;5013442;28;20037;-64
2022/10/02 09:26:33;;;;;;;20.55;4.50;;;23.70;99.90;;;;;;5013871;28;20060;-64
2022/10/02 09:30:13;;;;;;;16.50;4.20;;;23.80;99.90;;;;;;5013817;28;20049;-64
2022/10/02 09:33:55;;;;;;;14.32;4.05;;;23.90;99.90;;;;;;5013836;28;20053;-65
2022/10/02 09:37:27;;;;;;;15.48;3.70;;;24.10;99.90;;;;;;5012702;28;20045;-65
2022/10/02 09:44:57;;;;;;;11.68;3.58;;;24.40;99.90;;;;;;5012806;28;20491;-64
2022/10/02 09:48:36;;;;;;;13.55;4.78;;;25.70;99.90;;;;;;5012458;28;20049;-65
2022/10/02 09:51:59;;;;;;;10.63;2.47;;;26.10;99.90;;;;;;5012190;28;20052;-65
2022/10/02 09:55:37;;;;;;;6.18;2.03;;;25.50;99.90;;;;;;5012489;28;20405;-65
2022/10/02 09:59:18;;;;;;;10.43;2.88;;;25.30;99.90;;;;;;5013245;28;20052;-65
2022/10/02 10:03:19;;;;;;;12.45;3.90;;;27.10;99.90;;;;;;5013374;28;20037;-65
2022/10/02 10:06:25;;;;;;;7.22;1.90;;;29.10;99.90;;;;;;5012949;28;20065;-65
2022/10/02 10:10:07;;;;;;;7.13;1.80;;;29.50;99.90;;;;;;5011755;28;20396;-65
2022/10/02 10:13:16;;;;;;;9.98;3.00;;;28.40;99.90;;;;;;5013119;28;20053;-66
2022/10/02 10:17:18;;;;;;;8.05;2.17;;;27.00;99.90;;;;;;5012700;28;20812;-65
2022/10/02 10:21:08;;;;;;;7.53;2.10;;;25.50;99.90;;;;;;5012674;28;20049;-64
2022/10/02 10:24:31;;;;;;;5.75;1.40;;;24.40;99.90;;;;;;5012616;28;20053;-64
2022/10/02 10:28:12;;;;;;;3.58;1.30;;;23.80;99.90;;;;;;5012955;28;20496;-65
2022/10/02 10:31:53;;;;;;;9.20;1.50;;;23.90;99.90;;;;;;5012538;28;20757;-64
2022/10/02 10:35:08;;;;;;;9.38;2.08;;;23.70;99.90;;;;;;5011548;28;20401;-65
2022/10/02 10:38:51;;;;;;;6.65;1.90;;;22.50;99.90;;;;;;5012266;28;20061;-65
2022/10/02 10:42:33;;;;;;;12.70;1.90;;;21.90;99.90;;;;;;5012375;28;20496;-64
2022/10/02 10:46:02;;;;;;;8.90;2.15;;;21.90;99.90;;;;;;5011190;28;20060;-65
2022/10/02 10:49:44;;;;;;;9.45;1.70;;;22.20;99.90;;;;;;5012135;28;20041;-65
2022/10/02 10:53:15;;;;;;;5.13;2.28;;;22.40;99.90;;;;;;5012171;28;20385;-65
2022/10/02 10:56:43;;;;;;;10.88;2.38;;;22.70;99.90;;;;;;5012040;28;20052;-65
2022/10/02 11:00:18;;;;;;;13.60;1.70;;;22.60;99.90;;;;;;5011905;28;20417;-65
2022/10/02 11:10:58;;;;;;;8.63;3.05;;;23.90;99.90;;;;;;5011409;28;20041;-65
2022/10/02 11:14:40;;;;;;;10.52;2.97;;;23.50;99.90;;;;;;5011390;28;20117;-64
2022/10/02 11:18:11;;;;;;;8.75;1.73;;;23.50;99.90;;;;;;5011399;28;20049;-64
2022/10/02 11:21:30;;;;;;;9.27;1.80;;;23.00;99.90;;;;;;5011741;28;20503;-65
2022/10/02 11:25:26;;;;;;;8.52;1.70;;;22.60;99.90;;;;;;5011364;28;20044;-65
2022/10/02 11:29:11;;;;;;;4.32;1.25;;;22.40;99.90;;;;;;5011223;28;20057;-65
2022/10/02 11:32:53;;;;;;;13.52;1.67;;;22.90;99.90;;;;;;5011207;28;20135;-65
2022/10/02 11:36:15;;;;;;;9.50;1.23;;;23.40;99.90;;;;;;5011377;28;20060;-65
2022/10/02 11:40:00;;;;;;;5.32;1.40;;;23.50;99.90;;;;;;5011188;28;20271;-64
2022/10/02 11:43:23;;;;;;;10.98;2.30;;;23.60;99.90;;;;;;5011469;28;20488;-65
2022/10/02 11:46:47;;;;;;;5.55;1.20;;;24.10;99.90;;;;;;5011259;28;20438;-65
2022/10/02 11:49:58;;;;;;;17.13;2.53;;;24.80;99.90;;;;;;5011220;28;20388;-65
2022/10/02 11:57:06;;;;;;;4.30;1.25;;;26.40;99.90;;;;;;5011389;28;20053;-65
2022/10/02 12:00:28;;;;;;;4.72;1.65;;;27.10;99.90;;;;;;5011430;28;20049;-65
2022/10/02 12:03:57;;;;;;;8.70;1.67;;;27.10;99.90;;;;;;5010709;28;20405;-65
2022/10/02 12:07:10;;;;;;;6.22;1.70;;;26.80;99.90;;;;;;5010681;28;20164;-65
2022/10/02 12:10:14;;;;;;;7.25;1.50;;;26.70;99.90;;;;;;5011046;28;20401;-65
2022/10/02 12:13:47;;;;;;;7.22;2.13;;;26.40;99.90;;;;;;5010325;28;20057;-65
2022/10/02 12:17:13;;;;;;;8.30;1.88;;;26.60;99.90;;;;;;5010865;28;20045;-65
2022/10/02 12:27:41;;;;;;;11.80;1.35;;;26.70;99.90;;;;;;5011101;28;20057;-64
2022/10/02 12:31:04;;;;;;;5.15;1.40;;;26.30;99.90;;;;;;5010838;28;20049;-64
2022/10/02 12:34:25;;;;;;;7.80;1.73;;;26.00;99.90;;;;;;5010370;28;20595;-64
2022/10/02 12:37:39;;;;;;;;;;;25.70;99.90;;;;;;5010883;28;20053;-66
2022/10/02 12:45:04;;;;;;;10.13;1.33;;;24.90;99.90;;;;;;5009606;28;20425;-66
2022/10/02 12:48:22;;;;;;;9.25;1.63;;;24.60;99.90;;;;;;5014491;28;20045;-65
2022/10/02 12:51:53;;;;;;;14.73;1.67;;;24.30;99.90;;;;;;5014250;28;20095;-65
2022/10/02 12:55:06;;;;;;;9.15;1.95;;;24.20;99.90;;;;;;5014260;28;20061;-65
2022/10/02 12:58:51;;;;;;;6.38;1.50;;;24.20;99.90;;;;;;5014539;28;20053;-65
2022/10/02 13:02:34;;;;;;;9.35;1.48;;;24.10;99.90;;;;;;5014687;28;20049;-65
2022/10/02 13:06:30;;;;;;;9.35;1.92;;;24.10;99.90;;;;;;5013165;28;20048;-66
2022/10/02 13:09:56;;;;;;;7.30;1.77;;;23.90;99.90;;;;;;5011540;28;20184;-66
2022/10/02 13:13:12;;;;;;;8.00;1.70;;;24.10;99.90;;;;;;5014209;28;20063;-66
2022/10/02 13:16:30;;;;;;;6.93;1.40;;;24.30;99.90;;;;;;5014055;28;20049;-65
2022/10/02 13:19:46;;;;;;;5.75;1.20;;;24.30;99.90;;;;;;5013940;28;20049;-66
2022/10/02 13:23:12;;;;;;;6.85;1.40;;;24.40;99.90;;;;;;5013689;28;20043;-66
2022/10/02 13:26:52;;;;;;;4.60;1.55;;;24.50;99.90;;;;;;5013945;28;20094;-66
2022/10/02 13:30:28;;;;;;;5.43;1.23;;;24.70;99.90;;;;;;5013714;28;20393;-66
2022/10/02 13:33:59;;;;;;;7.07;1.52;;;24.70;99.90;;;;;;5013158;28;20072;-65
2022/10/02 13:37:25;;;;;;;9.95;1.70;;;24.60;99.90;;;;;;5013318;28;20045;-65
2022/10/02 13:40:38;;;;;;;6.30;1.55;;;24.40;99.90;;;;;;5013432;28;20393;-65
2022/10/02 13:44:17;;;;;;;7.55;1.88;;;24.20;99.90;;;;;;5013391;28;20166;-66
2022/10/02 13:47:46;;;;;;;7.75;1.80;;;24.10;99.90;;;;;;5013002;28;20041;-66
2022/10/02 13:51:13;;;;;;;9.55;1.30;;;24.00;99.90;;;;;;5012918;28;20045;-65
2022/10/02 13:54:32;;;;;;;5.20;1.42;;;23.90;99.90;;;;;;5013097;28;20061;-65
2022/10/02 13:57:54;;;;;;;7.25;1.80;;;23.70;99.90;;;;;;5012676;28;20042;-66
2022/10/02 14:01:56;;;;;;;9.77;1.67;;;23.40;99.90;;;;;;5013073;28;20056;-65
2022/10/02 14:05:28;;;;;;;6.30;1.52;;;23.20;99.90;;;;;;5013470;28;20053;-66
2022/10/02 14:09:03;;;;;;;8.88;2.10;;;23.10;99.90;;;;;;5013019;28;20056;-66
2022/10/02 14:12:46;;;;;;;6.13;1.45;;;23.00;99.90;;;;;;5012740;28;20061;-65
2022/10/02 14:16:40;;;;;;;6.20;2.20;;;22.90;99.90;;;;;;5012500;28;20401;-65
2022/10/02 14:20:28;;;;;;;12.48;1.73;;;22.80;99.90;;;;;;5012907;28;20049;-65
2022/10/02 14:27:57;;;;;;;6.82;1.48;;;22.90;99.90;;;;;;5012563;28;20045;-65
2022/10/02 14:35:33;;;;;;;7.75;1.42;;;23.10;99.90;;;;;;5012105;28;20041;-65
2022/10/02 14:39:02;;;;;;;7.55;1.55;;;23.20;99.90;;;;;;5012302;28;20053;-65
2022/10/02 14:42:46;;;;;;;6.13;1.40;;;23.60;99.90;;;;;;5011606;28;20422;-66
2022/10/02 14:46:18;;;;;;;9.55;1.67;;;25.10;99.90;;;;;;5012305;28;20048;-66
2022/10/02 14:49:46;;;;;;;4.18;1.45;;;26.10;99.90;;;;;;5011827;28;20036;-66
2022/10/02 14:57:09;;;;;;;5.80;1.67;;;26.40;99.90;;;;;;5012196;28;20053;-67
2022/10/02 15:00:39;;;;;;;;;;;27.10;99.90;;;;;;5012541;28;20041;-66
2022/10/02 15:04:03;;;;;;;5.95;1.38;;;27.50;99.90;;;;;;5011213;28;20364;-67
2022/10/02 15:07:18;;;;;;;10.57;1.80;;;28.00;99.90;;;;;;5011574;28;20049;-66
2022/10/02 15:10:48;;;;;;;8.48;1.92;;;27.60;99.90;;;;;;5011757;28;20053;-66
2022/10/02 15:14:00;;;;;;;7.93;2.13;;;27.00;99.90;;;;;;5011427;28;20057;-66
2022/10/02 15:20:58;;;;;;;6.65;1.58;;;26.80;99.90;;;;;;5011806;28;20049;-67
2022/10/02 15:31:59;;;;;;;8.75;1.98;;;25.80;99.90;;;;;;5011254;28;20041;-67
2022/10/02 15:35:46;;;;;;;8.32;1.35;;;25.50;99.90;;;;;;5010972;28;20049;-66
2022/10/02 15:39:14;;;;;;;6.93;1.40;;;25.10;99.90;;;;;;5011399;28;20053;-65
2022/10/02 15:42:51;;;;;;;4.85;1.67;;;24.60;99.90;;;;;;5011433;28;20052;-66
2022/10/02 15:46:10;;;;;;;10.70;1.45;;;24.30;99.90;;;;;;5011194;28;20049;-66
2022/10/02 15:49:35;;;;;;;7.35;1.60;;;23.80;99.90;;;;;;5011505;28;20515;-65
2022/10/02 15:52:42;;;;;;;9.48;1.98;;;23.30;99.90;;;;;;5010957;28;20033;-66
2022/10/02 15:56:24;;;;;;;6.75;1.55;;;23.00;99.90;;;;;;5011245;28;20041;-65
2022/10/02 16:00:05;;;;;;;10.40;1.50;;;22.80;99.90;;;;;;5010906;28;20060;-65
2022/10/02 16:03:20;;;;;;;15.60;1.90;;;22.60;99.90;;;;;;5010912;28;20044;-65
2022/10/02 16:07:18;;;;;;;6.97;1.75;;;22.30;99.90;;;;;;5011082;28;20072;-65
2022/10/02 16:10:25;;;;;;;11.40;1.60;;;22.00;99.90;;;;;;4989733;28;20185;-65
2022/10/02 16:17:51;;;;;;;6.40;1.60;;;21.90;99.90;;;;;;5012515;28;20389;-65
2022/10/02 16:25:25;;;;;;;10.63;2.53;;;21.50;99.90;;;;;;5014913;28;20048;-65
2022/10/02 16:28:54;;;;;;;10.57;1.95;;;21.40;99.90;;;;;;5014728;28;20129;-65
2022/10/02 16:32:22;;;;;;;7.35;2.05;;;21.20;99.90;;;;;;5013973;28;20033;-65
2022/10/02 16:35:45;;;;;;;14.32;2.92;;;21.10;99.90;;;;;;5014934;28;20053;-65
2022/10/02 16:39:49;;;;;;;11.02;2.03;;;21.10;99.90;;;;;;5014520;28;20069;-65
2022/10/02 16:43:27;;;;;;;6.90;1.90;;;21.00;99.90;;;;;;5014883;28;20053;-65
2022/10/02 16:47:09;;;;;;;9.45;2.17;;;20.80;99.90;;;;;;5014139;28;20056;-65
2022/10/02 16:50:24;;;;;;;11.52;2.30;;;20.70;99.90;;;;;;5013979;28;20056;-65
2022/10/02 16:54:19;;;;;;;16.75;2.30;;;20.60;99.90;;;;;;5013881;28;20539;-65
2022/10/02 16:57:44;;;;;;;9.35;2.03;;;20.50;99.90;;;;;;5014132;28;20049;-65
2022/10/02 17:01:22;;;;;;;14.15;2.67;;;20.50;99.90;;;;;;5014389;28;20049;-65
2022/10/02 17:16:02;;;;;;;9.68;2.72;;;20.30;99.90;;;;;;5014257;28;20052;-65
2022/10/02 17:19:46;;;;;;;25.73;9.30;;;20.30;99.90;;;;;;5013845;28;20073;-64
2022/10/02 17:22:58;;;;;;;154.27;64.35;;;20.20;99.90;;;;;;5014202;28;20498;-65
2022/10/02 17:26:24;;;;;;;62.15;28.67;;;20.20;99.90;;;;;;5013713;28;20049;-65
2022/10/02 17:29:35;;;;;;;41.22;16.45;;;20.20;99.90;;;;;;5013670;28;20650;-65
2022/10/02 17:37:09;;;;;;;152.60;56.58;;;20.20;99.90;;;;;;5013833;28;20049;-65
2022/10/02 17:40:23;;;;;;;110.50;41.13;;;20.10;99.90;;;;;;5013141;28;20041;-65
2022/10/02 17:44:13;;;;;;;19.17;8.30;;;20.10;99.90;;;;;;5013321;28;20397;-65
2022/10/02 17:48:01;;;;;;;12.07;3.42;;;20.10;99.90;;;;;;5012769;28;20053;-65
2022/10/02 17:51:50;;;;;;;11.27;3.05;;;20.10;99.90;;;;;;5004289;28;20357;-64
2022/10/02 17:59:41;;;;;;;51.42;22.65;;;20.20;99.90;;;;;;4984167;28;20048;-65
2022/10/02 18:03:35;;;;;;;327.25;132.07;;;20.20;99.90;;;;;;5013065;28;20393;-64
2022/10/02 18:07:03;;;;;;;221.27;89.25;;;20.20;99.90;;;;;;4999988;28;20038;-65
2022/10/02 18:10:57;;;;;;;27.80;10.40;;;20.10;99.90;;;;;;5012838;28;20721;-65
2022/10/02 18:14:13;;;;;;;63.40;21.88;;;20.00;99.90;;;;;;5012418;28;20392;-65
2022/10/02 18:17:41;;;;;;;22.10;6.53;;;20.10;99.90;;;;;;5012877;28;20072;-65
2022/10/02 18:21:00;;;;;;;23.58;7.80;;;20.00;99.90;;;;;;5013336;28;20065;-65
2022/10/02 18:24:21;;;;;;;19.95;8.65;;;20.00;99.90;;;;;;5012269;28;20048;-65
2022/10/02 18:31:35;;;;;;;22.38;5.65;;;20.00;99.90;;;;;;5012325;28;20045;-65
2022/10/02 18:34:42;;;;;;;14.25;3.92;;;20.00;99.90;;;;;;5012016;28;20044;-64
2022/10/02 18:38:12;;;;;;;20.42;5.90;;;20.00;99.90;;;;;;5011639;28;20053;-65
2022/10/02 18:41:19;;;;;;;14.77;3.30;;;20.00;99.90;;;;;;5012683;28;20515;-65
2022/10/02 18:44:27;;;;;;;9.48;3.38;;;19.90;99.90;;;;;;5011735;28;20033;-65
2022/10/02 18:47:47;;;;;;;10.18;3.03;;;19.80;99.90;;;;;;5012487;28;20056;-65
2022/10/02 18:55:14;;;;;;;13.18;3.03;;;19.80;99.90;;;;;;5011592;28;20049;-65
2022/10/02 18:59:03;;;;;;;5.90;1.77;;;19.70;99.90;;;;;;5011919;28;20515;-65
2022/10/02 19:02:45;;;;;;;7.75;2.08;;;19.70;99.90;;;;;;5011107;28;20037;-66
2022/10/02 19:06:07;;;;;;;11.13;2.78;;;19.60;99.90;;;;;;5011836;28;20053;-65
2022/10/02 19:09:31;;;;;;;23.33;2.90;;;19.60;99.90;;;;;;5011249;28;20060;-66
2022/10/02 19:12:43;;;;;;;13.75;2.15;;;19.50;99.90;;;;;;5011330;28;20049;-66
2022/10/02 19:15:50;;;;;;;5.70;1.92;;;19.50;99.90;;;;;;5011830;28;20041;-65
2022/10/02 19:19:20;;;;;;;14.27;2.10;;;19.50;99.90;;;;;;5011520;28;20129;-66
2022/10/02 19:22:43;;;;;;;5.70;1.80;;;19.40;99.90;;;;;;5011509;28;20052;-66
2022/10/02 19:26:22;;;;;;;15.43;2.30;;;19.40;99.90;;;;;;5002001;28;20038;-65
2022/10/02 19:29:35;;;;;;;10.30;1.90;;;19.40;99.90;;;;;;4999899;28;20033;-65
2022/10/02 19:32:41;;;;;;;6.68;2.03;;;19.40;99.90;;;;;;5011253;28;20041;-66
2022/10/02 19:35:45;;;;;;;13.65;2.20;;;19.30;99.90;;;;;;5010637;28;20508;-66
2022/10/02 19:38:54;;;;;;;8.65;2.22;;;19.40;99.90;;;;;;5011206;28;20488;-66
2022/10/02 19:45:55;;;;;;;9.60;2.70;;;19.40;99.90;;;;;;5011188;28;20045;-65
2022/10/02 19:49:01;;;;;;;10.30;2.20;;;19.40;99.90;;;;;;5011603;28;20496;-65
2022/10/02 19:52:48;;;;;;;10.38;3.00;;;18.90;99.90;;;;;;5011529;28;20049;-65
2022/10/02 19:56:16;;;;;;;11.65;2.75;;;19.40;99.90;;;;;;5010837;28;20061;-66
2022/10/02 19:59:58;;;;;;;11.23;2.65;;;19.40;99.90;;;;;;5010544;28;20381;-66
2022/10/02 20:03:09;;;;;;;14.60;2.13;;;19.40;99.90;;;;;;5010795;28;20073;-65
2022/10/02 20:06:18;;;;;;;11.77;2.40;;;19.40;99.90;;;;;;5009943;28;20044;-65
2022/10/02 20:09:26;;;;;;;13.32;2.42;;;19.40;99.90;;;;;;5011165;28;20390;-65
2022/10/02 20:19:56;;;;;;;9.85;2.25;;;19.30;99.90;;;;;;5010499;28;20500;-65
2022/10/02 20:23:27;;;;;;;10.32;2.40;;;19.30;99.90;;;;;;5009944;28;20061;-65
2022/10/02 20:30:20;;;;;;;7.05;1.88;;;19.20;99.90;;;;;;5010060;28;20496;-65